YXES weather

Esk Hospital Helipad
Esk, Queensland, Australia

Public forecast

Using degrees Celsius for public forecast. Weather courtesy of forecast.io.

METAR (pilot weather report)

Closest report is RAAF Base Amberley, 28.7 nm (53.1 km) SSE. Retrieved 2019/02/19 16:30 UTC (1 minute ago):

YAMB 191630Z AUTO 20004KT 9999 // NCD 22/20 Q1006

TAF (pilot weather forecast)

Forecast is more than 6 hours old.

Closest forecast is RAAF Base Amberley, 28.7 nm (53.1 km) SSE. Retrieved 2019/02/19 06:00 UTC (11 hours ago):

TAF YAMB 190533Z 1906/1924 06015KT CAVOK FM191000 09008KT 9999 FEW020 FM191500 VRB03KT 9999 SCT020